createdAt,value
2023-03-18T00:02:15.943Z,4.45
2023-03-18T00:04:42.899Z,4.15
2023-03-18T00:07:10.780Z,4.43
2023-03-18T00:09:38.246Z,4.43
2023-03-18T00:12:06.467Z,4.10
2023-03-18T00:14:36.491Z,4.80
2023-03-18T00:17:05.612Z,5.28
2023-03-18T00:19:33.656Z,4.75
2023-03-18T00:22:00.631Z,4.05
2023-03-18T00:24:30.803Z,4.43
2023-03-18T00:26:58.339Z,3.63
2023-03-18T00:29:25.872Z,4.30
2023-03-18T00:31:52.913Z,3.65
2023-03-18T00:34:20.993Z,4.70
2023-03-18T00:36:50.832Z,3.70
2023-03-18T00:39:21.488Z,4.20
2023-03-18T00:41:48.534Z,3.42
2023-03-18T00:44:15.538Z,4.22
2023-03-18T00:46:43.525Z,4.35
2023-03-18T00:49:10.923Z,4.78
2023-03-18T00:51:42.159Z,3.90
2023-03-18T00:54:13.082Z,4.30
2023-03-18T00:56:41.311Z,4.55
2023-03-18T00:59:08.739Z,3.78
2023-03-18T01:01:37.462Z,4.30
2023-03-18T01:04:06.349Z,4.10
2023-03-18T01:06:37.384Z,3.70
2023-03-18T01:09:06.851Z,3.92
2023-03-18T01:11:33.977Z,4.15
2023-03-18T01:14:01.701Z,4.05
2023-03-18T01:16:29.963Z,4.20
2023-03-18T01:18:57.393Z,4.47
2023-03-18T01:21:24.358Z,3.63
2023-03-18T01:23:57.768Z,4.18
2023-03-18T01:26:26.415Z,3.78
2023-03-18T01:28:55.892Z,3.55
2023-03-18T01:31:25.446Z,4.05
2023-03-18T01:33:56.025Z,3.58
2023-03-18T01:36:23.119Z,4.15
2023-03-18T01:39:02.912Z,3.95
2023-03-18T01:41:30.251Z,3.95
2023-03-18T01:43:57.394Z,3.80
2023-03-18T01:46:32.911Z,3.97
2023-03-18T01:49:10.744Z,3.40
2023-03-18T01:51:40.782Z,3.83
2023-03-18T01:54:08.852Z,3.85
2023-03-18T01:56:38.268Z,3.80
2023-03-18T01:59:06.276Z,3.58
2023-03-18T02:01:53.322Z,3.85
2023-03-18T02:04:26.865Z,3.75
2023-03-18T02:06:53.939Z,4.00
2023-03-18T02:09:21.214Z,4.03
2023-03-18T02:11:49.937Z,3.92
2023-03-18T02:14:25.299Z,3.65
2023-03-18T02:17:08.407Z,3.75
2023-03-18T02:20:20.381Z,3.63
2023-03-18T02:23:03.937Z,3.88
2023-03-18T02:25:47.891Z,3.70
2023-03-18T02:28:23.242Z,3.60
2023-03-18T02:30:58.788Z,3.55
2023-03-18T02:33:36.419Z,3.65
2023-03-18T02:36:19.392Z,3.78
2023-03-18T02:38:48.043Z,3.50
2023-03-18T02:41:30.187Z,3.45
2023-03-18T02:43:57.333Z,3.58
2023-03-18T02:47:10.652Z,3.22
2023-03-18T02:49:38.467Z,3.33
2023-03-18T02:52:06.246Z,3.83
2023-03-18T02:54:33.885Z,4.20
2023-03-18T02:57:02.601Z,3.90
2023-03-18T02:59:32.379Z,3.75
2023-03-18T03:02:00.105Z,3.40
2023-03-18T03:04:27.796Z,3.70
2023-03-18T03:06:58.923Z,3.17
2023-03-18T03:09:43.695Z,3.13
2023-03-18T03:12:10.736Z,3.92
2023-03-18T03:14:43.707Z,3.80
2023-03-18T03:17:10.980Z,3.35
2023-03-18T03:19:38.250Z,3.47
2023-03-18T03:22:05.304Z,3.58
2023-03-18T03:24:32.365Z,3.15
2023-03-18T03:26:59.512Z,3.33
2023-03-18T03:29:26.386Z,3.47
2023-03-18T03:31:53.286Z,3.60
2023-03-18T03:34:20.470Z,3.85
2023-03-18T03:36:47.383Z,3.58
2023-03-18T03:39:14.794Z,4.18
2023-03-18T03:41:41.895Z,3.35
2023-03-18T03:44:08.945Z,3.95
2023-03-18T03:46:36.025Z,3.53
2023-03-18T03:49:04.517Z,3.45
2023-03-18T03:51:31.417Z,3.83
2023-03-18T03:53:58.890Z,3.65
2023-03-18T03:56:25.846Z,3.58
2023-03-18T03:58:53.458Z,4.50
2023-03-18T04:01:21.473Z,3.53
2023-03-18T04:03:49.558Z,3.95
2023-03-18T04:06:17.457Z,3.95
2023-03-18T04:08:54.731Z,4.00
2023-03-18T04:11:22.172Z,3.60
2023-03-18T04:13:49.588Z,4.10
2023-03-18T04:16:17.161Z,4.05
2023-03-18T04:18:45.156Z,3.65
2023-03-18T04:21:12.340Z,4.15
2023-03-18T04:23:44.072Z,4.10
2023-03-18T04:26:13.093Z,3.95
2023-03-18T04:28:40.592Z,4.13
2023-03-18T04:31:10.203Z,4.13
2023-03-18T04:33:37.203Z,4.40
2023-03-18T04:36:04.389Z,3.92
2023-03-18T04:38:33.087Z,4.05
2023-03-18T04:41:00.295Z,4.38
2023-03-18T04:43:27.415Z,4.30
2023-03-18T04:45:55.022Z,3.97
2023-03-18T04:48:22.325Z,3.78
2023-03-18T04:50:49.800Z,3.90
2023-03-18T04:53:22.560Z,4.40
2023-03-18T04:55:50.773Z,4.30
2023-03-18T04:58:19.660Z,4.57
2023-03-18T05:00:59.082Z,4.78
2023-03-18T05:03:33.404Z,4.10
2023-03-18T05:06:00.826Z,4.55
2023-03-18T05:08:37.147Z,4.00
2023-03-18T05:11:04.574Z,4.53
2023-03-18T05:13:33.546Z,4.75
2023-03-18T05:16:00.837Z,4.38
2023-03-18T05:18:27.972Z,4.07
2023-03-18T05:20:57.318Z,5.05
2023-03-18T05:23:24.837Z,4.20
2023-03-18T05:25:55.340Z,4.90
2023-03-18T05:28:24.825Z,4.68
2023-03-18T05:31:07.800Z,4.13
2023-03-18T05:33:39.160Z,3.97
2023-03-18T05:36:07.571Z,4.80
2023-03-18T05:38:40.582Z,4.53
2023-03-18T05:41:08.111Z,4.40
2023-03-18T05:43:39.236Z,4.65
2023-03-18T05:46:06.535Z,5.15
2023-03-18T05:48:44.905Z,4.47
2023-03-18T05:51:12.612Z,5.20
2023-03-18T05:53:39.923Z,4.93
2023-03-18T05:56:20.243Z,4.70
2023-03-18T05:58:51.978Z,5.18
2023-03-18T06:01:37.490Z,3.83
2023-03-18T06:04:06.340Z,4.20
2023-03-18T06:06:33.805Z,4.38
2023-03-18T06:09:01.018Z,4.60
2023-03-18T06:11:29.359Z,4.45
2023-03-18T06:13:56.753Z,4.53
2023-03-18T06:16:24.715Z,4.82
2023-03-18T06:18:54.325Z,4.70
2023-03-18T06:21:21.268Z,4.28
2023-03-18T06:23:48.422Z,4.50
2023-03-18T06:26:15.872Z,4.47
2023-03-18T06:28:49.854Z,4.47
2023-03-18T06:31:17.908Z,4.65
2023-03-18T06:33:45.130Z,4.85
2023-03-18T06:36:16.517Z,4.22
2023-03-18T06:38:47.425Z,4.88
2023-03-18T06:41:14.876Z,4.50
2023-03-18T06:43:54.982Z,4.30
2023-03-18T06:46:23.905Z,4.30
2023-03-18T06:48:50.990Z,4.53
2023-03-18T06:51:23.168Z,4.32
2023-03-18T06:53:51.252Z,4.78
2023-03-18T06:56:18.207Z,4.72
2023-03-18T06:58:56.386Z,4.28
2023-03-18T07:01:23.578Z,4.30
2023-03-18T07:03:51.801Z,3.65
2023-03-18T07:06:19.088Z,5.00
2023-03-18T07:08:47.029Z,4.35
2023-03-18T07:11:14.152Z,5.45
2023-03-18T07:13:43.048Z,4.70
2023-03-18T07:16:17.616Z,4.28
2023-03-18T07:18:44.552Z,4.50
2023-03-18T07:21:13.707Z,5.00
2023-03-18T07:23:40.997Z,4.47
2023-03-18T07:26:08.962Z,4.47
2023-03-18T07:28:35.876Z,4.20
2023-03-18T07:31:03.791Z,4.95
2023-03-18T07:33:30.795Z,4.95
2023-03-18T07:35:58.106Z,4.53
2023-03-18T07:38:25.425Z,4.95
2023-03-18T07:40:52.317Z,4.47
2023-03-18T07:43:19.374Z,4.85
2023-03-18T07:45:46.644Z,4.72
2023-03-18T07:48:15.313Z,4.65
2023-03-18T07:50:42.251Z,4.45
2023-03-18T07:53:09.697Z,4.68
2023-03-18T07:55:36.884Z,4.68
2023-03-18T07:58:04.651Z,4.20
2023-03-18T08:00:32.448Z,4.53
2023-03-18T08:02:59.739Z,5.07
2023-03-18T08:05:27.510Z,5.35
2023-03-18T08:07:55.229Z,5.03
2023-03-18T08:10:22.556Z,4.90
2023-03-18T08:12:53.505Z,5.00
2023-03-18T08:15:22.437Z,4.85
2023-03-18T08:17:51.147Z,4.35
2023-03-18T08:20:18.668Z,4.60
2023-03-18T08:22:46.011Z,4.78
2023-03-18T08:25:14.574Z,4.85
2023-03-18T08:27:41.816Z,5.00
2023-03-18T08:30:10.613Z,4.85
2023-03-18T08:32:37.654Z,4.43
2023-03-18T08:35:05.405Z,5.03
2023-03-18T08:37:32.625Z,4.65
2023-03-18T08:40:00.162Z,4.38
2023-03-18T08:42:28.952Z,4.55
2023-03-18T08:44:56.567Z,4.60
2023-03-18T08:47:25.524Z,4.50
2023-03-18T08:49:53.249Z,4.93
2023-03-18T08:52:20.501Z,4.70
2023-03-18T08:54:47.753Z,4.80
2023-03-18T08:57:15.973Z,4.82
2023-03-18T08:59:43.046Z,4.80
2023-03-18T09:02:17.035Z,4.57
2023-03-18T09:04:45.130Z,4.78
2023-03-18T09:07:13.191Z,4.53
2023-03-18T09:09:44.067Z,4.97
2023-03-18T09:12:12.648Z,4.72
2023-03-18T09:14:40.865Z,4.30
2023-03-18T09:17:08.925Z,4.63
2023-03-18T09:19:37.361Z,4.15
2023-03-18T09:22:05.061Z,4.28
2023-03-18T09:24:32.196Z,4.28
2023-03-18T09:26:59.965Z,4.60
2023-03-18T09:29:27.714Z,4.43
2023-03-18T09:31:55.560Z,4.10
2023-03-18T09:34:22.645Z,4.60
2023-03-18T09:36:51.521Z,5.32
2023-03-18T09:39:22.252Z,4.47
2023-03-18T09:42:05.298Z,3.80
2023-03-18T09:44:36.169Z,4.60
2023-03-18T09:47:54.147Z,5.18
2023-03-18T09:50:54.344Z,4.80
2023-03-18T09:53:30.376Z,4.20
2023-03-18T09:56:02.168Z,4.13
2023-03-18T09:58:42.474Z,4.65
2023-03-18T10:01:12.199Z,4.25
2023-03-18T10:04:01.114Z,4.05
2023-03-18T10:06:29.394Z,3.88
2023-03-18T10:09:19.997Z,4.30
2023-03-18T10:11:51.102Z,4.15
2023-03-18T10:14:27.559Z,4.38
2023-03-18T10:16:58.498Z,4.22
2023-03-18T10:19:26.309Z,4.35
2023-03-18T10:22:25.813Z,3.53
2023-03-18T10:25:08.214Z,4.10
2023-03-18T10:27:44.743Z,4.03
2023-03-18T10:31:00.104Z,4.35
2023-03-18T10:34:00.648Z,4.38
2023-03-18T10:37:03.969Z,3.63
2023-03-18T10:39:33.678Z,4.50
2023-03-18T10:42:15.656Z,4.13
2023-03-18T10:44:42.909Z,4.70
2023-03-18T10:47:33.880Z,4.30
2023-03-18T10:50:16.102Z,4.40
2023-03-18T10:52:54.230Z,4.60
2023-03-18T10:55:31.065Z,4.03
2023-03-18T10:57:57.987Z,3.63
2023-03-18T11:00:34.678Z,3.67
2023-03-18T11:03:04.084Z,4.30
2023-03-18T11:05:36.064Z,4.30
2023-03-18T11:08:08.803Z,4.13
2023-03-18T11:10:47.038Z,4.32
2023-03-18T11:13:18.756Z,4.03
2023-03-18T11:15:56.699Z,4.20
2023-03-18T11:18:26.803Z,4.22
2023-03-18T11:21:01.193Z,11.55
2023-03-18T11:23:56.007Z,6.22
2023-03-18T11:26:26.408Z,4.40
2023-03-18T11:29:10.706Z,4.18
2023-03-18T11:31:54.876Z,4.05
2023-03-18T11:34:22.239Z,4.28
2023-03-18T11:37:05.014Z,4.70
2023-03-18T11:39:37.548Z,4.00
2023-03-18T11:42:22.008Z,3.70
2023-03-18T11:44:55.284Z,4.50
2023-03-18T11:47:25.296Z,3.97
2023-03-18T11:49:52.408Z,4.05
2023-03-18T11:52:36.586Z,4.53
2023-03-18T11:55:23.466Z,4.68
2023-03-18T11:58:36.431Z,4.28
2023-03-18T12:01:57.622Z,4.25
2023-03-18T12:04:36.279Z,3.85
2023-03-18T12:07:32.567Z,3.92
2023-03-18T12:10:20.569Z,4.07
2023-03-18T12:13:12.004Z,3.78
2023-03-18T12:16:17.153Z,3.63
2023-03-18T12:18:56.609Z,3.70
2023-03-18T12:21:53.612Z,3.38
2023-03-18T12:27:07.272Z,3.03
2023-03-18T12:30:15.229Z,2.95
2023-03-18T12:32:57.509Z,3.53
2023-03-18T12:35:38.017Z,3.35
2023-03-18T12:38:49.588Z,3.58
2023-03-18T12:42:01.852Z,3.53
2023-03-18T12:44:47.403Z,3.40
2023-03-18T12:47:27.822Z,3.28
2023-03-18T12:49:59.055Z,2.88
2023-03-18T12:52:45.095Z,3.35
2023-03-18T12:55:29.465Z,3.17
2023-03-18T12:58:03.964Z,2.88
2023-03-18T13:00:48.140Z,3.25
2023-03-18T13:03:28.406Z,2.53
2023-03-18T13:06:38.892Z,3.10
2023-03-18T13:09:37.425Z,3.42
2023-03-18T13:12:35.381Z,3.10
2023-03-18T13:15:23.023Z,3.20
2023-03-18T13:17:54.548Z,2.70
2023-03-18T13:20:28.271Z,2.83
2023-03-18T13:23:36.145Z,3.85
2023-03-18T13:27:00.203Z,2.85
2023-03-18T13:30:02.924Z,2.92
2023-03-18T13:32:47.946Z,3.42
2023-03-18T13:35:59.647Z,3.20
2023-03-18T13:38:51.196Z,2.65
2023-03-18T13:42:07.815Z,2.83
2023-03-18T13:45:24.226Z,2.90
2023-03-18T13:48:08.597Z,2.70
2023-03-18T13:50:42.233Z,2.50
2023-03-18T13:53:33.601Z,3.05
2023-03-18T13:56:05.430Z,3.15
2023-03-18T13:58:52.294Z,3.20
2023-03-18T14:01:34.043Z,3.17
2023-03-18T14:04:32.063Z,3.22
2023-03-18T14:07:19.483Z,3.05
2023-03-18T14:10:17.074Z,3.03
2023-03-18T14:12:47.606Z,3.17
2023-03-18T14:15:15.593Z,2.90
2023-03-18T14:17:52.984Z,2.75
2023-03-18T14:20:21.433Z,2.88
2023-03-18T14:23:25.059Z,2.92
2023-03-18T14:26:03.265Z,3.13
2023-03-18T14:28:42.665Z,3.10
2023-03-18T14:31:32.460Z,2.85
2023-03-18T14:34:27.740Z,3.20
2023-03-18T14:36:55.575Z,3.53
2023-03-18T14:39:47.987Z,3.55
2023-03-18T14:43:09.849Z,3.05
2023-03-18T14:45:44.142Z,3.00
2023-03-18T14:48:21.433Z,3.03
2023-03-18T14:50:52.341Z,3.05
2023-03-18T14:53:37.707Z,3.40
2023-03-18T14:56:06.304Z,2.70
2023-03-18T14:58:34.653Z,3.38
2023-03-18T15:01:09.846Z,2.88
2023-03-18T15:03:42.487Z,2.92
2023-03-18T15:06:20.508Z,3.25
2023-03-18T15:08:58.638Z,3.13
2023-03-18T15:11:26.452Z,2.95
2023-03-18T15:14:00.074Z,3.13
2023-03-18T15:16:32.894Z,3.10
2023-03-18T15:19:00.212Z,3.03
2023-03-18T15:21:32.000Z,3.03
2023-03-18T15:24:04.663Z,2.65
2023-03-18T15:26:37.439Z,2.75
2023-03-18T15:29:28.304Z,2.33
2023-03-18T15:32:15.973Z,2.30
2023-03-18T15:34:47.112Z,2.38
2023-03-18T15:37:34.161Z,2.88
2023-03-18T15:40:47.888Z,2.70
2023-03-18T15:43:28.948Z,2.58
2023-03-18T15:46:05.833Z,2.33
2023-03-18T15:48:40.887Z,2.45
2023-03-18T15:51:28.734Z,4.03
2023-03-18T15:54:28.206Z,2.83
2023-03-18T15:56:57.773Z,2.80
2023-03-18T15:59:32.391Z,2.17
2023-03-18T16:02:00.509Z,2.10
2023-03-18T16:04:32.594Z,3.20
2023-03-18T16:06:59.814Z,2.67
2023-03-18T16:09:27.030Z,2.97
2023-03-18T16:12:03.506Z,2.28
2023-03-18T16:14:40.207Z,2.58
2023-03-18T16:17:07.081Z,2.45
2023-03-18T16:19:34.008Z,2.17
2023-03-18T16:22:01.004Z,2.10
2023-03-18T16:24:28.056Z,2.47
2023-03-18T16:26:57.025Z,2.22
2023-03-18T16:29:31.797Z,2.42
2023-03-18T16:32:00.044Z,2.58
2023-03-18T16:34:27.846Z,2.20
2023-03-18T16:36:55.266Z,3.20
2023-03-18T16:39:29.147Z,3.15
2023-03-18T16:41:56.324Z,3.28
2023-03-18T16:44:23.649Z,3.35
2023-03-18T16:46:54.807Z,3.22
2023-03-18T16:49:31.224Z,2.38
2023-03-18T16:54:32.814Z,3.33
2023-03-18T16:57:02.841Z,2.78
2023-03-18T16:59:34.339Z,2.55
2023-03-18T17:02:01.801Z,2.85
2023-03-18T17:04:32.433Z,2.92
2023-03-18T17:07:03.285Z,3.35
2023-03-18T17:09:31.990Z,2.75
2023-03-18T17:12:03.897Z,3.38
2023-03-18T17:14:39.746Z,3.33
2023-03-18T17:17:18.129Z,3.25
2023-03-18T17:19:45.202Z,3.05
2023-03-18T17:22:28.480Z,3.50
2023-03-18T17:24:55.549Z,3.75
2023-03-18T17:27:31.608Z,3.78
2023-03-18T17:29:58.550Z,6.90
2023-03-18T17:32:25.972Z,6.60
2023-03-18T17:34:54.423Z,5.80
2023-03-18T17:37:23.418Z,4.55
2023-03-18T17:39:50.568Z,4.07
2023-03-18T17:42:28.370Z,4.75
2023-03-18T17:44:57.493Z,4.60
2023-03-18T17:47:24.552Z,4.65
2023-03-18T17:49:51.574Z,4.97
2023-03-18T17:52:20.983Z,5.68
2023-03-18T17:54:48.476Z,4.20
2023-03-18T17:57:17.413Z,5.18
2023-03-18T17:59:45.216Z,4.45
2023-03-18T18:02:21.166Z,5.07
2023-03-18T18:04:48.232Z,3.97
2023-03-18T18:07:19.127Z,3.90
2023-03-18T18:09:46.881Z,3.75
2023-03-18T18:12:25.501Z,3.90
2023-03-18T18:14:52.736Z,4.18
2023-03-18T18:17:20.538Z,3.80
2023-03-18T18:19:47.564Z,3.80
2023-03-18T18:22:18.187Z,5.07
2023-03-18T18:24:47.042Z,5.05
2023-03-18T18:27:15.510Z,6.03
2023-03-18T18:29:51.700Z,5.90
2023-03-18T18:32:21.874Z,5.78
2023-03-18T18:34:49.173Z,6.72
2023-03-18T18:37:16.462Z,6.18
2023-03-18T18:39:43.567Z,5.22
2023-03-18T18:42:12.401Z,5.43
2023-03-18T18:44:40.113Z,4.50
2023-03-18T18:47:18.942Z,5.05
2023-03-18T18:49:47.072Z,5.70
2023-03-18T18:52:14.151Z,6.32
2023-03-18T18:54:41.796Z,8.43
2023-03-18T18:57:26.995Z,20.25
2023-03-18T18:59:54.084Z,18.95
2023-03-18T19:02:34.002Z,17.85
2023-03-18T19:05:04.571Z,17.17
2023-03-18T19:07:33.798Z,15.60
2023-03-18T19:10:00.944Z,13.57
2023-03-18T19:12:28.272Z,12.40
2023-03-18T19:14:55.878Z,12.32
2023-03-18T19:17:23.494Z,11.52
2023-03-18T19:19:52.936Z,13.75
2023-03-18T19:22:21.389Z,16.15
2023-03-18T19:24:50.084Z,15.88
2023-03-18T19:27:28.246Z,15.52
2023-03-18T19:29:59.115Z,18.17
2023-03-18T19:32:26.963Z,16.77
2023-03-18T19:34:55.196Z,17.65
2023-03-18T19:37:29.326Z,16.38
2023-03-18T19:39:57.433Z,14.02
2023-03-18T19:42:24.453Z,12.95
2023-03-18T19:44:51.613Z,12.15
2023-03-18T19:47:29.934Z,10.85
2023-03-18T19:49:57.124Z,11.02
2023-03-18T19:52:26.269Z,11.35
2023-03-18T19:54:55.245Z,11.30
2023-03-18T19:57:32.495Z,10.73
2023-03-18T20:00:04.389Z,10.82
2023-03-18T20:02:34.768Z,9.23
2023-03-18T20:05:07.560Z,9.40
2023-03-18T20:07:34.449Z,9.45
2023-03-18T20:10:01.540Z,9.50
2023-03-18T20:12:41.474Z,9.68
2023-03-18T20:15:26.569Z,9.57
2023-03-18T20:17:54.359Z,9.65
2023-03-18T20:20:25.027Z,9.77
2023-03-18T20:23:04.508Z,10.48
2023-03-18T20:25:38.717Z,11.15
2023-03-18T20:28:07.851Z,14.60
2023-03-18T20:30:38.884Z,14.43
2023-03-18T20:33:07.226Z,11.98
2023-03-18T20:35:41.039Z,11.85
2023-03-18T20:38:29.533Z,13.05
2023-03-18T20:40:57.243Z,12.43
2023-03-18T20:43:27.861Z,12.88
2023-03-18T20:45:58.165Z,11.77
2023-03-18T20:48:25.496Z,10.68
2023-03-18T20:50:52.961Z,11.05
2023-03-18T20:53:27.239Z,9.75
2023-03-18T20:55:54.781Z,10.27
2023-03-18T20:58:30.764Z,10.25
2023-03-18T21:00:57.832Z,11.15
2023-03-18T21:03:34.830Z,10.90
2023-03-18T21:06:06.835Z,9.95
2023-03-18T21:08:34.054Z,10.40
2023-03-18T21:11:02.266Z,11.05
2023-03-18T21:13:36.306Z,11.98
2023-03-18T21:16:06.227Z,13.07
2023-03-18T21:18:35.704Z,12.30
2023-03-18T21:21:02.645Z,12.07
2023-03-18T21:23:32.889Z,11.48
2023-03-18T21:26:01.058Z,12.65
2023-03-18T21:28:30.157Z,11.88
2023-03-18T21:30:58.594Z,10.35
2023-03-18T21:33:28.300Z,9.73
2023-03-18T21:35:58.897Z,18.23
2023-03-18T21:38:29.411Z,14.20
2023-03-18T21:41:00.506Z,11.73
2023-03-18T21:43:39.557Z,11.68
2023-03-18T21:46:12.939Z,14.32
2023-03-18T21:48:40.706Z,20.73
2023-03-18T21:51:38.115Z,16.60
2023-03-18T21:54:16.845Z,14.40
2023-03-18T21:56:43.961Z,13.63
2023-03-18T21:59:11.025Z,13.20
2023-03-18T22:01:38.102Z,15.63
2023-03-18T22:04:05.278Z,14.82
2023-03-18T22:06:32.247Z,14.80
2023-03-18T22:08:59.112Z,13.73
2023-03-18T22:11:26.116Z,14.45
2023-03-18T22:13:54.064Z,15.57
2023-03-18T22:16:21.650Z,13.93
2023-03-18T22:18:48.960Z,14.95
2023-03-18T22:21:28.426Z,23.88
2023-03-18T22:23:55.579Z,19.10
2023-03-18T22:26:22.676Z,17.23
2023-03-18T22:28:50.682Z,17.17
2023-03-18T22:31:26.583Z,15.55
2023-03-18T22:33:54.408Z,15.93
2023-03-18T22:36:22.145Z,15.88
2023-03-18T22:38:49.918Z,14.63
2023-03-18T22:41:25.310Z,17.63
2023-03-18T22:43:52.479Z,17.40
2023-03-18T22:46:19.385Z,16.60
2023-03-18T22:48:46.413Z,16.13
2023-03-18T22:51:25.944Z,17.60
2023-03-18T22:53:54.797Z,16.30
2023-03-18T22:56:23.177Z,15.32
2023-03-18T22:58:50.889Z,17.17
2023-03-18T23:01:21.371Z,18.65
2023-03-18T23:03:48.927Z,18.73
2023-03-18T23:06:19.976Z,17.63
2023-03-18T23:08:48.257Z,18.10
2023-03-18T23:11:17.546Z,18.67
2023-03-18T23:13:50.047Z,16.85
2023-03-18T23:16:21.204Z,16.65
2023-03-18T23:18:49.020Z,18.65
2023-03-18T23:21:23.458Z,17.00
2023-03-18T23:23:51.336Z,17.88
2023-03-18T23:26:19.401Z,16.90
2023-03-18T23:28:46.336Z,17.13
2023-03-18T23:31:15.432Z,17.23
2023-03-18T23:33:43.350Z,16.52
2023-03-18T23:36:11.749Z,17.65
2023-03-18T23:38:38.974Z,17.90
2023-03-18T23:41:07.190Z,16.20
2023-03-18T23:43:35.869Z,15.25
2023-03-18T23:46:03.672Z,15.77
2023-03-18T23:48:31.373Z,15.23
2023-03-18T23:50:58.277Z,15.90
2023-03-18T23:53:25.636Z,15.57
2023-03-18T23:55:52.569Z,14.63
2023-03-18T23:58:19.551Z,15.43
